createdAt,value
2023-02-17T00:01:11.799Z,4.88
2023-02-17T00:03:38.182Z,4.89
2023-02-17T00:06:09.537Z,4.90
2023-02-17T00:08:36.038Z,4.85
2023-02-17T00:11:02.620Z,4.87
2023-02-17T00:13:29.020Z,4.86
2023-02-17T00:15:55.469Z,4.85
2023-02-17T00:18:22.286Z,4.89
2023-02-17T00:20:48.700Z,4.86
2023-02-17T00:23:15.089Z,4.83
2023-02-17T00:25:41.416Z,4.87
2023-02-17T00:28:07.833Z,4.81
2023-02-17T00:30:34.367Z,4.84
2023-02-17T00:33:01.052Z,4.76
2023-02-17T00:35:27.492Z,4.77
2023-02-17T00:37:53.804Z,4.76
2023-02-17T00:40:20.193Z,4.78
2023-02-17T00:42:46.559Z,4.76
2023-02-17T00:45:12.959Z,4.79
2023-02-17T00:47:39.268Z,4.87
2023-02-17T00:50:06.796Z,4.95
2023-02-17T00:52:33.133Z,4.96
2023-02-17T00:54:59.528Z,5.03
2023-02-17T00:57:26.302Z,5.11
2023-02-17T00:59:52.733Z,5.12
2023-02-17T01:02:19.111Z,5.16
2023-02-17T01:04:45.528Z,5.21
2023-02-17T01:07:11.919Z,5.25
2023-02-17T01:09:38.272Z,5.33
2023-02-17T01:12:04.700Z,5.40
2023-02-17T01:14:31.050Z,5.49
2023-02-17T01:16:57.459Z,5.47
2023-02-17T01:19:23.822Z,5.46
2023-02-17T01:21:50.395Z,5.40
2023-02-17T01:24:16.814Z,5.36
2023-02-17T01:26:43.242Z,5.39
2023-02-17T01:29:10.029Z,5.40
2023-02-17T01:31:36.693Z,5.41
2023-02-17T01:34:04.432Z,5.51
2023-02-17T01:36:31.240Z,5.50
2023-02-17T01:38:57.660Z,5.42
2023-02-17T01:41:28.634Z,5.49
2023-02-17T01:44:18.219Z,5.47
2023-02-17T01:46:46.685Z,5.48
2023-02-17T01:49:25.496Z,5.46
2023-02-17T01:52:20.803Z,5.41
2023-02-17T01:54:57.733Z,5.46
2023-02-17T01:57:26.714Z,5.47
2023-02-17T01:59:53.749Z,5.50
2023-02-17T02:02:20.546Z,5.47
2023-02-17T02:04:49.618Z,5.47
2023-02-17T02:07:22.225Z,5.54
2023-02-17T02:09:54.422Z,5.47
2023-02-17T02:12:33.497Z,5.48
2023-02-17T02:15:02.868Z,5.50
2023-02-17T02:17:40.835Z,5.51
2023-02-17T02:20:46.358Z,5.46
2023-02-17T02:23:31.203Z,5.48
2023-02-17T02:26:03.690Z,5.48
2023-02-17T02:28:58.108Z,5.51
2023-02-17T02:32:02.146Z,5.52
2023-02-17T02:34:38.919Z,5.56
2023-02-17T02:37:10.562Z,5.56
2023-02-17T02:39:42.924Z,5.55
2023-02-17T02:42:13.265Z,5.54
2023-02-17T02:44:39.654Z,5.57
2023-02-17T02:47:44.429Z,5.60
2023-02-17T02:50:14.604Z,5.67
2023-02-17T02:53:13.064Z,5.74
2023-02-17T02:56:07.815Z,5.80
2023-02-17T02:58:52.044Z,5.85
2023-02-17T03:01:52.423Z,5.89
2023-02-17T03:04:40.281Z,5.96
2023-02-17T03:07:22.096Z,6.03
2023-02-17T03:09:50.737Z,6.13
2023-02-17T03:12:17.506Z,6.14
2023-02-17T03:14:43.984Z,6.17
2023-02-17T03:17:10.558Z,6.10
2023-02-17T03:19:37.180Z,6.01
2023-02-17T03:22:24.650Z,6.22
2023-02-17T03:24:51.536Z,6.18
2023-02-17T03:27:18.017Z,6.19
2023-02-17T03:29:44.433Z,6.27
2023-02-17T03:32:10.865Z,6.25
2023-02-17T03:34:37.317Z,6.45
2023-02-17T03:37:03.746Z,6.53
2023-02-17T03:39:30.270Z,6.75
2023-02-17T03:41:56.631Z,6.74
2023-02-17T03:44:23.014Z,6.81
2023-02-17T03:46:49.382Z,6.78
2023-02-17T03:49:15.786Z,6.85
2023-02-17T03:51:42.112Z,6.84
2023-02-17T03:54:09.365Z,6.92
2023-02-17T03:56:35.765Z,6.95
2023-02-17T03:59:02.393Z,6.92
2023-02-17T04:01:28.801Z,6.97
2023-02-17T04:03:55.407Z,6.94
2023-02-17T04:06:21.801Z,6.93
2023-02-17T04:08:48.198Z,6.92
2023-02-17T04:11:14.553Z,6.98
2023-02-17T04:13:40.990Z,7.01
2023-02-17T04:16:09.403Z,7.04
2023-02-17T04:18:36.450Z,7.02
2023-02-17T04:21:03.292Z,7.14
2023-02-17T04:23:29.680Z,7.09
2023-02-17T04:25:56.109Z,7.04
2023-02-17T04:28:22.910Z,7.07
2023-02-17T04:30:50.821Z,7.01
2023-02-17T04:33:17.106Z,7.03
2023-02-17T04:35:43.480Z,7.06
2023-02-17T04:38:10.586Z,7.04
2023-02-17T04:40:37.758Z,7.04
2023-02-17T04:43:04.290Z,7.15
2023-02-17T04:45:30.666Z,7.17
2023-02-17T04:47:57.057Z,7.13
2023-02-17T04:50:23.416Z,7.09
2023-02-17T04:52:49.796Z,7.08
2023-02-17T04:55:16.200Z,7.13
2023-02-17T04:57:42.591Z,7.14
2023-02-17T05:00:09.386Z,7.10
2023-02-17T05:02:35.757Z,7.19
2023-02-17T05:05:02.137Z,7.16
2023-02-17T05:07:28.577Z,7.10
2023-02-17T05:09:54.968Z,7.21
2023-02-17T05:12:21.322Z,7.24
2023-02-17T05:14:47.713Z,7.22
2023-02-17T05:17:14.175Z,7.24
2023-02-17T05:19:40.522Z,7.16
2023-02-17T05:22:06.904Z,7.25
2023-02-17T05:24:33.328Z,7.22
2023-02-17T05:26:59.673Z,7.27
2023-02-17T05:29:26.034Z,7.21
2023-02-17T05:31:52.457Z,7.21
2023-02-17T05:34:18.826Z,7.26
2023-02-17T05:36:45.163Z,7.25
2023-02-17T05:39:11.741Z,7.29
2023-02-17T05:41:38.168Z,7.34
2023-02-17T05:44:04.731Z,7.30
2023-02-17T05:46:31.118Z,7.45
2023-02-17T05:48:57.502Z,7.51
2023-02-17T05:51:23.941Z,7.53
2023-02-17T05:53:50.308Z,7.56
2023-02-17T05:56:16.620Z,7.56
2023-02-17T05:58:43.084Z,7.57
2023-02-17T06:01:10.359Z,7.59
2023-02-17T06:03:37.270Z,7.66
2023-02-17T06:06:04.595Z,7.73
2023-02-17T06:08:31.272Z,7.73
2023-02-17T06:10:57.632Z,7.78
2023-02-17T06:13:23.934Z,7.76
2023-02-17T06:15:50.289Z,7.81
2023-02-17T06:18:16.936Z,7.77
2023-02-17T06:20:43.392Z,7.83
2023-02-17T06:23:09.985Z,7.89
2023-02-17T06:25:36.344Z,8.00
2023-02-17T06:28:02.858Z,8.02
2023-02-17T06:30:29.751Z,8.00
2023-02-17T06:32:56.349Z,8.09
2023-02-17T06:35:22.727Z,8.09
2023-02-17T06:37:49.193Z,8.15
2023-02-17T06:40:15.940Z,8.14
2023-02-17T06:42:42.363Z,8.21
2023-02-17T06:45:09.074Z,8.43
2023-02-17T06:47:35.740Z,8.42
2023-02-17T06:50:02.155Z,8.50
2023-02-17T06:52:28.513Z,8.51
2023-02-17T06:54:54.832Z,8.56
2023-02-17T06:57:21.178Z,8.59
2023-02-17T06:59:47.547Z,8.52
2023-02-17T07:02:14.569Z,8.57
2023-02-17T07:04:41.672Z,8.63
2023-02-17T07:07:08.647Z,8.63
2023-02-17T07:09:34.968Z,8.58
2023-02-17T07:12:01.765Z,8.59
2023-02-17T07:14:28.191Z,8.63
2023-02-17T07:16:55.012Z,8.62
2023-02-17T07:19:21.521Z,8.67
2023-02-17T07:21:47.926Z,8.62
2023-02-17T07:24:14.316Z,8.61
2023-02-17T07:26:40.835Z,8.67
2023-02-17T07:29:07.850Z,8.63
2023-02-17T07:31:35.239Z,8.68
2023-02-17T07:34:02.869Z,8.73
2023-02-17T07:36:29.476Z,8.74
2023-02-17T07:38:56.128Z,8.75
2023-02-17T07:41:30.641Z,8.77
2023-02-17T07:43:57.554Z,8.75
2023-02-17T07:46:24.752Z,8.72
2023-02-17T07:48:51.285Z,8.86
2023-02-17T07:51:20.658Z,8.83
2023-02-17T07:53:47.906Z,8.82
2023-02-17T07:56:16.055Z,8.84
2023-02-17T07:58:43.345Z,8.92
2023-02-17T08:01:15.748Z,8.95
2023-02-17T08:03:42.934Z,8.96
2023-02-17T08:06:14.619Z,9.02
2023-02-17T08:08:59.500Z,9.01
2023-02-17T08:11:46.465Z,9.09
2023-02-17T08:14:13.564Z,9.11
2023-02-17T08:16:40.333Z,9.20
2023-02-17T08:19:07.732Z,9.25
2023-02-17T08:21:34.198Z,9.26
2023-02-17T08:24:00.577Z,9.24
2023-02-17T08:26:27.792Z,9.31
2023-02-17T08:28:54.108Z,9.35
2023-02-17T08:31:23.380Z,9.37
2023-02-17T08:33:50.157Z,9.36
2023-02-17T08:36:16.784Z,9.41
2023-02-17T08:38:48.417Z,9.41
2023-02-17T08:41:19.096Z,9.57
2023-02-17T08:43:45.550Z,9.63
2023-02-17T08:46:12.571Z,9.67
2023-02-17T08:48:39.088Z,9.78
2023-02-17T08:51:05.792Z,9.86
2023-02-17T08:53:33.366Z,9.90
2023-02-17T08:55:59.922Z,9.95
2023-02-17T08:58:26.310Z,10.02
2023-02-17T09:00:52.749Z,9.99
2023-02-17T09:03:19.190Z,9.98
2023-02-17T09:05:45.664Z,9.94
2023-02-17T09:08:12.088Z,9.89
2023-02-17T09:10:38.525Z,9.88
2023-02-17T09:13:05.408Z,9.92
2023-02-17T09:15:31.866Z,9.90
2023-02-17T09:17:58.452Z,9.89
2023-02-17T09:20:25.584Z,9.79
2023-02-17T09:22:52.469Z,9.83
2023-02-17T09:25:19.064Z,9.85
2023-02-17T09:27:45.518Z,9.86
2023-02-17T09:30:12.419Z,9.89
2023-02-17T09:32:41.930Z,9.88
2023-02-17T09:35:11.336Z,9.89
2023-02-17T09:37:37.734Z,9.94
2023-02-17T09:40:04.693Z,9.88
2023-02-17T09:42:34.109Z,9.91
2023-02-17T09:45:06.322Z,9.97
2023-02-17T09:47:36.417Z,10.04
2023-02-17T09:50:06.946Z,10.10
2023-02-17T09:52:36.026Z,10.12
2023-02-17T09:55:09.317Z,10.13
2023-02-17T09:57:43.203Z,10.15
2023-02-17T10:00:15.823Z,10.19
2023-02-17T10:02:56.490Z,10.19
2023-02-17T10:05:25.758Z,10.25
2023-02-17T10:07:56.526Z,10.30
2023-02-17T10:10:26.473Z,10.36
2023-02-17T10:12:56.638Z,10.43
2023-02-17T10:15:25.539Z,10.48
2023-02-17T10:17:55.986Z,10.57
2023-02-17T10:20:35.958Z,10.67
2023-02-17T10:23:07.430Z,10.70
2023-02-17T10:25:59.478Z,10.80
2023-02-17T10:28:39.640Z,10.88
2023-02-17T10:31:12.795Z,10.93
2023-02-17T10:33:52.950Z,11.10
2023-02-17T10:36:33.858Z,11.23
2023-02-17T10:39:03.880Z,11.37
2023-02-17T10:41:35.128Z,11.41
2023-02-17T10:44:03.260Z,11.39
2023-02-17T10:46:30.585Z,11.44
2023-02-17T10:48:57.893Z,11.51
2023-02-17T10:51:31.195Z,11.54
2023-02-17T10:54:01.717Z,11.56
2023-02-17T10:56:44.704Z,11.71
2023-02-17T10:59:22.506Z,11.74
2023-02-17T11:01:49.296Z,11.83
2023-02-17T11:04:15.694Z,11.90
2023-02-17T11:06:44.594Z,11.94
2023-02-17T11:09:29.299Z,12.03
2023-02-17T11:12:12.223Z,12.17
2023-02-17T11:14:48.750Z,12.13
2023-02-17T11:17:30.583Z,12.26
2023-02-17T11:20:04.956Z,12.34
2023-02-17T11:22:37.036Z,12.41
2023-02-17T11:25:18.909Z,12.48
2023-02-17T11:27:52.238Z,12.54
2023-02-17T11:30:18.999Z,12.63
2023-02-17T11:32:45.547Z,12.64
2023-02-17T11:35:54.050Z,12.77
2023-02-17T11:38:23.466Z,12.77
2023-02-17T11:41:03.926Z,12.85
2023-02-17T11:43:30.785Z,12.82
2023-02-17T11:46:03.204Z,12.79
2023-02-17T11:48:32.456Z,12.82
2023-02-17T11:51:23.151Z,12.88
2023-02-17T11:54:06.646Z,13.03
2023-02-17T11:56:35.367Z,13.02
2023-02-17T11:59:26.639Z,13.11
2023-02-17T12:02:05.261Z,13.26
2023-02-17T12:04:33.583Z,13.12
2023-02-17T12:07:22.737Z,13.21
2023-02-17T12:10:16.104Z,13.14
2023-02-17T12:13:05.251Z,13.21
2023-02-17T12:15:40.821Z,13.21
2023-02-17T12:18:31.484Z,13.10
2023-02-17T12:21:12.446Z,13.03
2023-02-17T12:23:49.984Z,12.95
2023-02-17T12:26:24.723Z,12.82
2023-02-17T12:29:23.450Z,12.94
2023-02-17T12:31:58.755Z,13.03
2023-02-17T12:35:00.210Z,12.97
2023-02-17T12:37:34.158Z,12.90
2023-02-17T12:40:10.492Z,12.97
2023-02-17T12:42:40.294Z,13.07
2023-02-17T12:45:31.406Z,12.93
2023-02-17T12:48:02.842Z,13.04
2023-02-17T12:50:35.903Z,12.82
2023-02-17T12:53:06.671Z,12.92
2023-02-17T12:55:48.738Z,12.79
2023-02-17T12:58:21.569Z,12.76
2023-02-17T13:01:06.880Z,12.58
2023-02-17T13:03:35.399Z,12.70
2023-02-17T13:06:29.568Z,12.63
2023-02-17T13:08:58.613Z,12.58
2023-02-17T13:11:30.723Z,12.48
2023-02-17T13:13:57.283Z,12.66
2023-02-17T13:16:23.778Z,12.66
2023-02-17T13:18:51.879Z,12.85
2023-02-17T13:21:32.346Z,12.77
2023-02-17T13:23:58.753Z,13.01
2023-02-17T13:26:30.787Z,12.81
2023-02-17T13:29:23.348Z,12.87
2023-02-17T13:31:54.330Z,12.90
2023-02-17T13:34:31.700Z,12.71
2023-02-17T13:36:58.577Z,12.71
2023-02-17T13:39:27.885Z,12.58
2023-02-17T13:41:59.292Z,12.65
2023-02-17T13:44:40.126Z,12.58
2023-02-17T13:47:14.116Z,12.59
2023-02-17T13:49:40.382Z,12.58
2023-02-17T13:52:17.740Z,12.51
2023-02-17T13:54:57.339Z,12.54
2023-02-17T13:57:32.467Z,12.51
2023-02-17T14:00:29.093Z,12.53
2023-02-17T14:03:15.583Z,12.63
2023-02-17T14:05:46.823Z,12.59
2023-02-17T14:08:34.260Z,12.69
2023-02-17T14:11:16.965Z,12.67
2023-02-17T14:13:45.824Z,12.65
2023-02-17T14:16:33.218Z,12.70
2023-02-17T14:19:17.240Z,12.70
2023-02-17T14:22:04.451Z,12.76
2023-02-17T14:24:36.121Z,12.76
2023-02-17T14:27:13.805Z,12.75
2023-02-17T14:29:50.110Z,12.76
2023-02-17T14:32:34.719Z,12.76
2023-02-17T14:35:13.310Z,12.76
2023-02-17T14:37:41.472Z,12.74
2023-02-17T14:40:28.196Z,12.70
2023-02-17T14:42:54.565Z,12.71
2023-02-17T14:45:20.901Z,12.68
2023-02-17T14:47:47.449Z,12.68
2023-02-17T14:50:16.073Z,12.68
2023-02-17T14:52:45.477Z,12.68
2023-02-17T14:55:35.221Z,12.67
2023-02-17T14:58:01.793Z,12.66
2023-02-17T15:00:28.535Z,12.69
2023-02-17T15:02:54.946Z,12.65
2023-02-17T15:05:21.319Z,12.63
2023-02-17T15:07:47.815Z,12.67
2023-02-17T15:10:28.095Z,12.71
2023-02-17T15:12:55.976Z,12.73
2023-02-17T15:15:22.575Z,12.77
2023-02-17T15:17:48.946Z,12.78
2023-02-17T15:20:16.536Z,12.74
2023-02-17T15:22:44.196Z,12.76
2023-02-17T15:25:19.045Z,12.81
2023-02-17T15:27:47.212Z,12.79
2023-02-17T15:30:16.452Z,12.81
2023-02-17T15:32:43.603Z,12.79
2023-02-17T15:35:16.639Z,12.75
2023-02-17T15:37:43.083Z,12.81
2023-02-17T15:40:14.434Z,12.83
2023-02-17T15:42:40.888Z,12.82
2023-02-17T15:45:09.637Z,12.77
2023-02-17T15:47:36.037Z,12.78
2023-02-17T15:50:02.368Z,12.78
2023-02-17T15:52:28.692Z,12.73
2023-02-17T15:54:55.080Z,12.71
2023-02-17T15:57:25.357Z,12.72
2023-02-17T15:59:54.848Z,12.71
2023-02-17T16:02:23.201Z,12.71
2023-02-17T16:04:49.613Z,12.67
2023-02-17T16:07:16.011Z,12.66
2023-02-17T16:09:42.462Z,12.64
2023-02-17T16:12:16.449Z,12.65
2023-02-17T16:14:43.961Z,12.67
2023-02-17T16:17:16.047Z,12.59
2023-02-17T16:19:42.600Z,12.59
2023-02-17T16:22:08.981Z,12.55
2023-02-17T16:24:35.301Z,12.49
2023-02-17T16:27:01.771Z,12.49
2023-02-17T16:29:28.214Z,12.45
2023-02-17T16:31:55.780Z,12.45
2023-02-17T16:34:23.303Z,12.46
2023-02-17T16:36:51.059Z,12.43
2023-02-17T16:39:20.001Z,12.39
2023-02-17T16:41:46.981Z,12.40
2023-02-17T16:44:17.275Z,12.36
2023-02-17T16:46:51.945Z,12.37
2023-02-17T16:49:33.081Z,12.32
2023-02-17T16:52:05.733Z,12.35
2023-02-17T16:54:34.387Z,12.29
2023-02-17T16:57:01.771Z,12.26
2023-02-17T16:59:28.212Z,12.26
2023-02-17T17:01:54.604Z,12.21
2023-02-17T17:04:21.691Z,12.21
2023-02-17T17:06:50.488Z,12.16
2023-02-17T17:09:23.697Z,12.17
2023-02-17T17:11:50.211Z,12.17
2023-02-17T17:14:16.935Z,12.16
2023-02-17T17:16:49.093Z,12.18
2023-02-17T17:19:15.500Z,12.12
2023-02-17T17:21:41.872Z,12.15
2023-02-17T17:24:08.256Z,12.13
2023-02-17T17:26:39.811Z,12.14
2023-02-17T17:29:07.453Z,12.14
2023-02-17T17:31:34.460Z,12.15
2023-02-17T17:34:00.844Z,12.15
2023-02-17T17:36:39.361Z,12.13
2023-02-17T17:39:07.835Z,12.12
2023-02-17T17:41:34.231Z,12.12
2023-02-17T17:44:00.666Z,12.13
2023-02-17T17:46:31.923Z,12.10
2023-02-17T17:48:59.656Z,12.07
2023-02-17T17:51:28.157Z,12.05
2023-02-17T17:53:54.683Z,12.08
2023-02-17T17:56:28.499Z,12.04
2023-02-17T17:58:55.713Z,12.03
2023-02-17T18:01:22.175Z,11.97
2023-02-17T18:03:49.502Z,11.97
2023-02-17T18:06:19.298Z,11.92
2023-02-17T18:08:46.786Z,11.91
2023-02-17T18:11:15.881Z,11.90
2023-02-17T18:13:43.443Z,11.88
2023-02-17T18:16:10.126Z,11.90
2023-02-17T18:18:36.905Z,11.88
2023-02-17T18:21:03.425Z,11.86
2023-02-17T18:23:29.902Z,11.81
2023-02-17T18:25:56.254Z,11.83
2023-02-17T18:28:22.672Z,11.82
2023-02-17T18:30:49.101Z,11.76
2023-02-17T18:33:15.646Z,11.72
2023-02-17T18:35:43.994Z,11.66
2023-02-17T18:38:10.355Z,11.66
2023-02-17T18:40:40.543Z,11.63
2023-02-17T18:43:07.725Z,11.63
2023-02-17T18:45:34.215Z,11.63
2023-02-17T18:48:00.630Z,11.63
2023-02-17T18:50:27.392Z,11.66
2023-02-17T18:52:53.727Z,11.74
2023-02-17T18:55:20.131Z,11.77
2023-02-17T18:57:46.516Z,11.79
2023-02-17T19:00:15.400Z,11.88
2023-02-17T19:02:41.950Z,11.92
2023-02-17T19:05:10.021Z,12.00
2023-02-17T19:07:36.430Z,12.18
2023-02-17T19:10:03.958Z,12.12
2023-02-17T19:12:30.348Z,12.13
2023-02-17T19:14:56.732Z,12.12
2023-02-17T19:17:24.543Z,12.08
2023-02-17T19:19:51.244Z,12.06
2023-02-17T19:22:18.236Z,12.11
2023-02-17T19:24:45.097Z,12.08
2023-02-17T19:27:11.895Z,12.11
2023-02-17T19:29:38.320Z,12.10
2023-02-17T19:32:04.860Z,12.14
2023-02-17T19:34:31.996Z,12.06
2023-02-17T19:36:58.412Z,12.16
2023-02-17T19:39:24.801Z,12.14
2023-02-17T19:41:51.153Z,12.13
2023-02-17T19:44:17.598Z,12.12
2023-02-17T19:46:43.951Z,12.07
2023-02-17T19:49:10.343Z,11.99
2023-02-17T19:51:36.725Z,11.91
2023-02-17T19:54:03.120Z,11.81
2023-02-17T19:56:31.912Z,11.72
2023-02-17T19:58:58.635Z,11.63
2023-02-17T20:01:27.281Z,11.56
2023-02-17T20:03:55.020Z,11.44
2023-02-17T20:06:34.650Z,11.35
2023-02-17T20:09:04.584Z,11.27
2023-02-17T20:11:31.943Z,11.38
2023-02-17T20:13:59.427Z,11.28
2023-02-17T20:16:26.814Z,11.29
2023-02-17T20:18:55.085Z,11.25
2023-02-17T20:21:24.184Z,11.23
2023-02-17T20:23:51.385Z,11.20
2023-02-17T20:26:25.307Z,11.21
2023-02-17T20:28:51.793Z,11.14
2023-02-17T20:31:18.537Z,11.14
2023-02-17T20:33:45.358Z,11.13
2023-02-17T20:36:12.219Z,11.14
2023-02-17T20:38:40.500Z,11.08
2023-02-17T20:41:08.438Z,11.10
2023-02-17T20:43:37.460Z,11.11
2023-02-17T20:46:04.050Z,11.18
2023-02-17T20:48:30.368Z,11.20
2023-02-17T20:50:58.225Z,11.19
2023-02-17T20:53:25.741Z,11.20
2023-02-17T20:55:52.360Z,11.21
2023-02-17T20:58:19.017Z,11.17
2023-02-17T21:00:46.100Z,11.16
2023-02-17T21:03:12.543Z,11.12
2023-02-17T21:05:39.039Z,11.04
2023-02-17T21:08:05.398Z,11.04
2023-02-17T21:10:32.888Z,11.10
2023-02-17T21:12:59.266Z,11.20
2023-02-17T21:15:25.711Z,11.22
2023-02-17T21:17:52.088Z,11.35
2023-02-17T21:20:20.466Z,11.45
2023-02-17T21:22:46.896Z,11.48
2023-02-17T21:25:13.485Z,11.55
2023-02-17T21:27:39.871Z,11.63
2023-02-17T21:30:07.561Z,11.56
2023-02-17T21:32:33.803Z,11.58
2023-02-17T21:35:00.138Z,11.59
2023-02-17T21:37:26.478Z,11.73
2023-02-17T21:39:52.858Z,11.64
2023-02-17T21:42:39.162Z,11.62
2023-02-17T21:45:05.884Z,11.66
2023-02-17T21:47:32.534Z,11.59
2023-02-17T21:49:59.099Z,11.62
2023-02-17T21:52:25.437Z,11.54
2023-02-17T21:54:51.827Z,11.51
2023-02-17T21:57:18.249Z,11.48
2023-02-17T21:59:44.611Z,11.48
2023-02-17T22:02:11.830Z,11.48
2023-02-17T22:04:38.223Z,11.37
2023-02-17T22:07:04.565Z,11.31
2023-02-17T22:09:30.919Z,11.24
2023-02-17T22:11:57.276Z,11.21
2023-02-17T22:14:23.609Z,11.18
2023-02-17T22:16:49.998Z,11.13
2023-02-17T22:19:23.625Z,11.09
2023-02-17T22:21:51.281Z,11.00
2023-02-17T22:24:17.620Z,11.09
2023-02-17T22:26:43.922Z,11.05
2023-02-17T22:29:10.269Z,11.09
2023-02-17T22:31:36.693Z,11.14
2023-02-17T22:34:06.308Z,11.17
2023-02-17T22:36:34.621Z,11.12
2023-02-17T22:39:01.699Z,11.16
2023-02-17T22:41:28.304Z,11.10
2023-02-17T22:43:54.869Z,11.08
2023-02-17T22:46:23.223Z,11.14
2023-02-17T22:48:51.846Z,11.15
2023-02-17T22:51:20.620Z,11.17
2023-02-17T22:53:47.254Z,11.26
2023-02-17T22:56:13.942Z,11.21
2023-02-17T22:58:40.682Z,11.19
2023-02-17T23:01:15.718Z,11.24
2023-02-17T23:03:42.596Z,11.19
2023-02-17T23:06:12.541Z,11.21
2023-02-17T23:08:39.196Z,11.15
2023-02-17T23:11:10.518Z,11.16
2023-02-17T23:13:37.784Z,11.13
2023-02-17T23:16:05.154Z,11.20
2023-02-17T23:18:33.152Z,11.25
2023-02-17T23:21:00.108Z,11.29
2023-02-17T23:23:26.782Z,11.24
2023-02-17T23:25:54.974Z,11.27
2023-02-17T23:28:23.492Z,11.24
2023-02-17T23:30:50.457Z,11.20
2023-02-17T23:33:18.408Z,11.14
2023-02-17T23:35:45.859Z,11.14
2023-02-17T23:38:13.771Z,11.14
2023-02-17T23:40:40.384Z,11.12
2023-02-17T23:43:06.785Z,11.11
2023-02-17T23:45:33.970Z,11.03
2023-02-17T23:48:00.330Z,11.00
2023-02-17T23:50:26.879Z,10.96
2023-02-17T23:52:53.236Z,10.97
2023-02-17T23:55:19.631Z,10.97
2023-02-17T23:57:46.007Z,10.94
